sensor_id;sensor_type;location;lat;lon;timestamp;temperature;humidity
20162;DHT22;51382;53.180;15.414;2022-10-01T00:10:18;6.30;99.90
20162;DHT22;51382;53.180;15.414;2022-10-01T00:25:30;6.00;99.90
20162;DHT22;51382;53.180;15.414;2022-10-01T00:40:41;5.80;99.90
20162;DHT22;51382;53.180;15.414;2022-10-01T00:55:53;5.80;99.90
20162;DHT22;51382;53.180;15.414;2022-10-01T01:11:09;5.90;99.90
20162;DHT22;51382;53.180;15.414;2022-10-01T01:26:28;5.80;99.90
20162;DHT22;51382;53.180;15.414;2022-10-01T01:41:50;5.90;99.90
20162;DHT22;51382;53.180;15.414;2022-10-01T01:57:03;5.70;99.90
20162;DHT22;51382;53.180;15.414;2022-10-01T02:12:18;5.70;99.90
20162;DHT22;51382;53.180;15.414;2022-10-01T02:27:39;5.50;99.90
20162;DHT22;51382;53.180;15.414;2022-10-01T02:42:53;5.70;99.90
20162;DHT22;51382;53.180;15.414;2022-10-01T02:58:07;5.80;99.90
20162;DHT22;51382;53.180;15.414;2022-10-01T03:13:19;5.70;99.90
20162;DHT22;51382;53.180;15.414;2022-10-01T03:28:30;5.80;99.90
20162;DHT22;51382;53.180;15.414;2022-10-01T03:43:41;6.00;99.90
20162;DHT22;51382;53.180;15.414;2022-10-01T03:58:52;6.20;99.90
20162;DHT22;51382;53.180;15.414;2022-10-01T04:14:03;6.10;99.90
20162;DHT22;51382;53.180;15.414;2022-10-01T04:29:14;6.20;99.90
20162;DHT22;51382;53.180;15.414;2022-10-01T04:44:25;6.30;99.90
20162;DHT22;51382;53.180;15.414;2022-10-01T04:59:38;6.20;99.90
20162;DHT22;51382;53.180;15.414;2022-10-01T05:14:49;5.90;99.90
20162;DHT22;51382;53.180;15.414;2022-10-01T05:30:00;5.90;99.90
20162;DHT22;51382;53.180;15.414;2022-10-01T05:45:11;7.10;99.90
20162;DHT22;51382;53.180;15.414;2022-10-01T06:00:24;8.10;99.90
20162;DHT22;51382;53.180;15.414;2022-10-01T06:15:36;8.90;99.90
20162;DHT22;51382;53.180;15.414;2022-10-01T06:30:47;9.70;99.90
20162;DHT22;51382;53.180;15.414;2022-10-01T06:46:00;10.40;99.90
20162;DHT22;51382;53.180;15.414;2022-10-01T07:01:13;11.30;99.90
20162;DHT22;51382;53.180;15.414;2022-10-01T07:16:27;11.30;99.90
20162;DHT22;51382;53.180;15.414;2022-10-01T07:31:38;10.70;99.90
20162;DHT22;51382;53.180;15.414;2022-10-01T07:46:49;12.50;99.90
20162;DHT22;51382;53.180;15.414;2022-10-01T08:02:01;11.90;99.90
20162;DHT22;51382;53.180;15.414;2022-10-01T08:17:11;12.00;99.90
20162;DHT22;51382;53.180;15.414;2022-10-01T08:32:23;13.50;99.90
20162;DHT22;51382;53.180;15.414;2022-10-01T08:47:36;12.60;99.90
20162;DHT22;51382;53.180;15.414;2022-10-01T09:02:49;12.50;99.90
20162;DHT22;51382;53.180;15.414;2022-10-01T09:18:06;13.40;99.90
20162;DHT22;51382;53.180;15.414;2022-10-01T09:33:30;13.40;99.90
20162;DHT22;51382;53.180;15.414;2022-10-01T09:48:45;13.70;99.90
20162;DHT22;51382;53.180;15.414;2022-10-01T10:04:03;13.70;99.90
20162;DHT22;51382;53.180;15.414;2022-10-01T10:19:16;14.00;99.90
20162;DHT22;51382;53.180;15.414;2022-10-01T10:34:34;14.10;99.90
20162;DHT22;51382;53.180;15.414;2022-10-01T10:49:46;14.40;99.90
20162;DHT22;51382;53.180;15.414;2022-10-01T11:05:00;14.10;99.90
20162;DHT22;51382;53.180;15.414;2022-10-01T11:20:23;14.30;99.90
20162;DHT22;51382;53.180;15.414;2022-10-01T11:35:47;14.70;99.90
20162;DHT22;51382;53.180;15.414;2022-10-01T11:51:07;14.70;99.90
20162;DHT22;51382;53.180;15.414;2022-10-01T12:06:22;14.70;99.90
20162;DHT22;51382;53.180;15.414;2022-10-01T12:21:32;15.00;99.90
20162;DHT22;51382;53.180;15.414;2022-10-01T12:36:47;14.50;99.90
20162;DHT22;51382;53.180;15.414;2022-10-01T12:52:07;14.30;99.90
20162;DHT22;51382;53.180;15.414;2022-10-01T13:07:29;14.30;99.90
20162;DHT22;51382;53.180;15.414;2022-10-01T13:22:48;11.80;99.90
20162;DHT22;51382;53.180;15.414;2022-10-01T13:38:13;11.40;99.90
20162;DHT22;51382;53.180;15.414;2022-10-01T13:53:36;11.70;99.90
20162;DHT22;51382;53.180;15.414;2022-10-01T14:08:58;11.30;99.90
20162;DHT22;51382;53.180;15.414;2022-10-01T14:24:10;11.20;99.90
20162;DHT22;51382;53.180;15.414;2022-10-01T14:39:31;10.90;99.90
20162;DHT22;51382;53.180;15.414;2022-10-01T14:54:43;10.80;99.90
20162;DHT22;51382;53.180;15.414;2022-10-01T15:10:07;10.80;99.90
20162;DHT22;51382;53.180;15.414;2022-10-01T15:25:24;10.70;99.90
20162;DHT22;51382;53.180;15.414;2022-10-01T15:40:40;11.00;99.90
20162;DHT22;51382;53.180;15.414;2022-10-01T15:55:55;11.10;99.90
20162;DHT22;51382;53.180;15.414;2022-10-01T16:11:08;11.10;99.90
20162;DHT22;51382;53.180;15.414;2022-10-01T16:26:32;11.30;99.90
20162;DHT22;51382;53.180;15.414;2022-10-01T16:41:45;11.50;99.90
20162;DHT22;51382;53.180;15.414;2022-10-01T16:56:57;11.40;99.90
20162;DHT22;51382;53.180;15.414;2022-10-01T17:12:09;11.40;99.90
20162;DHT22;51382;53.180;15.414;2022-10-01T17:27:15;11.60;99.90
20162;DHT22;51382;53.180;15.414;2022-10-01T17:42:26;11.50;99.90
20162;DHT22;51382;53.180;15.414;2022-10-01T17:57:39;11.50;99.90
20162;DHT22;51382;53.180;15.414;2022-10-01T18:12:50;11.50;99.90
20162;DHT22;51382;53.180;15.414;2022-10-01T18:27:57;11.50;99.90
20162;DHT22;51382;53.180;15.414;2022-10-01T18:43:11;11.50;99.90
20162;DHT22;51382;53.180;15.414;2022-10-01T18:58:34;11.60;99.90
20162;DHT22;51382;53.180;15.414;2022-10-01T19:14:02;11.20;99.90
20162;DHT22;51382;53.180;15.414;2022-10-01T19:29:34;11.30;99.90
20162;DHT22;51382;53.180;15.414;2022-10-01T19:44:56;11.50;99.90
20162;DHT22;51382;53.180;15.414;2022-10-01T20:00:14;11.60;99.90
20162;DHT22;51382;53.180;15.414;2022-10-01T20:15:32;11.50;99.90
20162;DHT22;51382;53.180;15.414;2022-10-01T20:30:57;11.60;99.90
20162;DHT22;51382;53.180;15.414;2022-10-01T20:46:15;11.50;99.90
20162;DHT22;51382;53.180;15.414;2022-10-01T21:01:30;11.40;99.90
20162;DHT22;51382;53.180;15.414;2022-10-01T21:16:50;9.60;99.90
20162;DHT22;51382;53.180;15.414;2022-10-01T21:32:09;11.40;99.90
20162;DHT22;51382;53.180;15.414;2022-10-01T21:47:35;11.40;99.90
20162;DHT22;51382;53.180;15.414;2022-10-01T22:03:01;11.50;99.90
20162;DHT22;51382;53.180;15.414;2022-10-01T22:18:19;11.60;99.90
20162;DHT22;51382;53.180;15.414;2022-10-01T22:33:39;11.50;99.90
20162;DHT22;51382;53.180;15.414;2022-10-01T22:48:58;11.60;99.90
20162;DHT22;51382;53.180;15.414;2022-10-01T23:04:18;11.70;99.90
20162;DHT22;51382;53.180;15.414;2022-10-01T23:19:41;11.70;99.90
20162;DHT22;51382;53.180;15.414;2022-10-01T23:35:00;11.60;99.90
20162;DHT22;51382;53.180;15.414;2022-10-01T23:50:26;11.50;99.90
